Time;durP1;ratioP1;P1;durP2;ratioP2;P2;SDS_P1;SDS_P2;PMS_P1;PMS_P2;Temp;Humidity;BMP_temperature;BMP_pressure;BME280_temperature;BME280_humidity;BME280_pressure;Samples;Min_cycle;Max_cycle;Signal;HPM_P1;HPM_P2
2022/06/17 00:01:06;;;;;;;1.38;1.10;;;;;;;;;;10500309;28;20216;-73
2022/06/17 00:06:12;;;;;;;1.15;1.15;;;;;;;;;;10493519;28;20728;-73
2022/06/17 00:11:14;;;;;;;1.35;1.33;;;;;;;;;;10492915;28;20185;-73
2022/06/17 00:16:16;;;;;;;3.22;1.45;;;;;;;;;;10499698;28;20205;-73
2022/06/17 00:21:23;;;;;;;2.38;1.40;;;;;;;;;;10502968;28;20194;-73
2022/06/17 00:26:24;;;;;;;2.33;1.83;;;;;;;;;;10476632;28;20229;-73
2022/06/17 00:31:25;;;;;;;2.00;1.90;;;;;;;;;;10495682;28;20216;-73
2022/06/17 00:36:26;;;;;;;2.15;1.80;;;;;;;;;;10474110;28;20214;-73
2022/06/17 00:41:29;;;;;;;2.13;1.90;;;;;;;;;;10495138;28;20194;-74
2022/06/17 00:46:39;;;;;;;2.13;2.00;;;;;;;;;;10491714;28;20868;-73
2022/06/17 00:51:46;;;;;;;2.97;1.60;;;;;;;;;;10495093;28;20202;-73
2022/06/17 00:56:47;;;;;;;1.90;1.80;;;;;;;;;;10488978;28;20214;-73
2022/06/17 01:01:50;;;;;;;2.13;1.95;;;;;;;;;;10489448;28;20304;-73
2022/06/17 01:06:57;;;;;;;1.90;1.77;;;;;;;;;;10486726;28;20218;-73
2022/06/17 01:12:00;;;;;;;2.22;2.13;;;;;;;;;;10482509;28;20196;-73
2022/06/17 01:17:02;;;;;;;3.40;2.50;;;;;;;;;;10487499;28;20305;-73
2022/06/17 01:22:33;;;;;;;3.10;2.90;;;;;;;;;;10464398;28;20843;-73
2022/06/17 01:27:39;;;;;;;3.47;2.75;;;;;;;;;;10493050;28;20225;-72
2022/06/17 01:32:49;;;;;;;5.68;2.70;;;;;;;;;;10485528;28;20225;-73
2022/06/17 01:37:51;;;;;;;4.82;2.70;;;;;;;;;;10478450;28;20244;-73
2022/06/17 01:42:52;;;;;;;3.55;2.83;;;;;;;;;;10483888;28;20193;-73
2022/06/17 01:47:53;;;;;;;10.88;3.13;;;;;;;;;;10486335;28;20765;-73
2022/06/17 01:53:01;;;;;;;14.00;3.10;;;;;;;;;;10476454;28;20186;-73
2022/06/17 01:58:04;;;;;;;7.25;2.88;;;;;;;;;;10488172;28;20198;-73
2022/06/17 02:03:12;;;;;;;6.38;3.20;;;;;;;;;;10486384;28;20275;-73
2022/06/17 02:08:13;;;;;;;11.50;4.18;;;;;;;;;;10488210;28;21086;-73
2022/06/17 02:13:16;;;;;;;10.25;3.10;;;;;;;;;;10470674;28;20743;-73
2022/06/17 02:18:37;;;;;;;3.20;3.00;;;;;;;;;;10486164;28;20206;-73
2022/06/17 02:23:41;;;;;;;5.68;3.10;;;;;;;;;;10490504;28;20226;-73
2022/06/17 02:28:42;;;;;;;3.78;3.00;;;;;;;;;;10468129;28;20205;-73
2022/06/17 02:33:49;;;;;;;3.67;3.40;;;;;;;;;;10487003;28;20224;-73
2022/06/17 02:38:52;;;;;;;5.93;3.38;;;;;;;;;;10459204;28;20216;-73
2022/06/17 02:43:56;;;;;;;2.85;2.75;;;;;;;;;;10473188;28;20225;-72
2022/06/17 02:48:59;;;;;;;3.60;3.30;;;;;;;;;;10491321;28;20774;-73
2022/06/17 02:54:03;;;;;;;3.85;3.67;;;;;;;;;;10478564;28;20182;-73
2022/06/17 02:59:15;;;;;;;4.43;3.15;;;;;;;;;;10470887;28;20730;-73
2022/06/17 03:04:22;;;;;;;4.88;3.47;;;;;;;;;;10479355;28;20220;-73
2022/06/17 03:09:24;;;;;;;3.42;3.22;;;;;;;;;;10489942;28;20198;-72
2022/06/17 03:14:28;;;;;;;3.50;3.30;;;;;;;;;;10482751;28;20690;-73
2022/06/17 03:19:32;;;;;;;4.88;3.28;;;;;;;;;;10458757;28;20720;-72
2022/06/17 03:24:52;;;;;;;3.70;3.40;;;;;;;;;;10475879;28;20594;-73
2022/06/17 03:29:55;;;;;;;3.70;3.50;;;;;;;;;;10477226;28;20683;-73
2022/06/17 03:34:56;;;;;;;4.13;3.80;;;;;;;;;;10491973;28;20632;-72
2022/06/17 03:40:03;;;;;;;6.05;3.88;;;;;;;;;;10492549;28;20277;-72
2022/06/17 03:45:27;;;;;;;4.00;3.78;;;;;;;;;;10485324;28;20299;-73
2022/06/17 03:50:38;;;;;;;4.93;4.38;;;;;;;;;;10492677;28;20273;-73
2022/06/17 03:55:41;;;;;;;4.22;3.92;;;;;;;;;;10476589;28;20206;-73
2022/06/17 04:00:44;;;;;;;5.20;4.80;;;;;;;;;;10473379;28;20841;-73
2022/06/17 04:05:47;;;;;;;4.82;4.63;;;;;;;;;;10484861;28;20218;-72
2022/06/17 04:10:49;;;;;;;5.53;5.03;;;;;;;;;;10473461;28;20186;-73
2022/06/17 04:16:13;;;;;;;5.15;4.78;;;;;;;;;;10481218;28;20579;-72
2022/06/17 04:21:15;;;;;;;5.93;4.78;;;;;;;;;;10496529;28;20194;-74
2022/06/17 04:26:23;;;;;;;5.38;5.10;;;;;;;;;;10493629;28;21288;-73
2022/06/17 04:31:26;;;;;;;5.15;4.85;;;;;;;;;;10471193;28;20220;-73
2022/06/17 04:36:36;;;;;;;7.90;6.50;;;;;;;;;;10488552;28;20220;-74
2022/06/17 04:41:39;;;;;;;6.90;6.22;;;;;;;;;;10490075;28;20190;-74
2022/06/17 04:46:58;;;;;;;5.88;5.57;;;;;;;;;;10493288;28;20214;-73
2022/06/17 04:52:27;;;;;;;6.95;6.32;;;;;;;;;;10476718;28;20183;-73
2022/06/17 04:57:34;;;;;;;11.05;5.95;;;;;;;;;;10484622;28;20205;-73
2022/06/17 05:02:43;;;;;;;7.25;6.55;;;;;;;;;;10489999;28;20237;-73
2022/06/17 05:07:58;;;;;;;7.93;6.75;;;;;;;;;;10495976;28;20308;-73
2022/06/17 05:12:59;;;;;;;8.10;7.50;;;;;;;;;;10480950;28;20599;-75
2022/06/17 05:18:02;;;;;;;8.90;6.68;;;;;;;;;;10489245;28;20954;-73
2022/06/17 05:23:05;;;;;;;10.90;6.35;;;;;;;;;;10489622;28;20195;-73
2022/06/17 05:28:07;;;;;;;6.50;5.97;;;;;;;;;;10457001;28;20210;-73
2022/06/17 05:33:12;;;;;;;14.48;7.20;;;;;;;;;;10481106;28;20205;-73
2022/06/17 05:38:14;;;;;;;11.85;6.85;;;;;;;;;;10479331;28;20855;-73
2022/06/17 05:43:15;;;;;;;8.93;6.57;;;;;;;;;;10488110;28;20193;-73
2022/06/17 05:48:17;;;;;;;8.02;6.43;;;;;;;;;;10484129;28;20213;-74
2022/06/17 05:53:25;;;;;;;13.75;6.10;;;;;;;;;;10467526;28;20190;-74
2022/06/17 05:58:29;;;;;;;10.20;5.15;;;;;;;;;;10467811;28;20694;-73
2022/06/17 06:03:32;;;;;;;6.45;4.50;;;;;;;;;;10463859;28;20261;-72
2022/06/17 06:08:39;;;;;;;15.20;5.03;;;;;;;;;;10477239;28;20214;-74
2022/06/17 06:13:41;;;;;;;7.05;5.25;;;;;;;;;;10465937;28;20193;-74
2022/06/17 06:18:47;;;;;;;5.75;5.00;;;;;;;;;;10461499;28;20674;-73
2022/06/17 06:23:55;;;;;;;6.85;4.80;;;;;;;;;;10481034;28;20216;-74
2022/06/17 06:29:02;;;;;;;5.85;4.90;;;;;;;;;;10474256;28;20199;-74
2022/06/17 06:34:04;;;;;;;8.15;5.82;;;;;;;;;;10474446;28;20235;-74
2022/06/17 06:39:13;;;;;;;11.82;6.43;;;;;;;;;;10468588;28;20498;-75
2022/06/17 06:44:15;;;;;;;7.75;4.80;;;;;;;;;;10467772;28;20247;-74
2022/06/17 06:49:34;;;;;;;5.07;3.78;;;;;;;;;;10484461;28;20240;-75
2022/06/17 06:54:35;;;;;;;7.22;4.05;;;;;;;;;;10490039;28;20227;-73
2022/06/17 06:59:37;;;;;;;5.47;4.97;;;;;;;;;;10479805;28;20220;-74
2022/06/17 07:04:38;;;;;;;7.50;6.15;;;;;;;;;;10478516;28;20222;-74
2022/06/17 07:09:39;;;;;;;7.90;3.90;;;;;;;;;;10490242;28;20186;-74
2022/06/17 07:14:41;;;;;;;4.15;3.85;;;;;;;;;;10464511;28;20185;-73
2022/06/17 07:19:42;;;;;;;5.80;3.13;;;;;;;;;;10474302;28;20277;-73
2022/06/17 07:24:43;;;;;;;4.43;4.10;;;;;;;;;;10471915;28;20212;-73
2022/06/17 07:29:44;;;;;;;4.15;3.80;;;;;;;;;;10486008;28;20797;-74
2022/06/17 07:34:45;;;;;;;7.70;3.97;;;;;;;;;;10486989;28;20268;-73
2022/06/17 07:39:56;;;;;;;7.53;3.92;;;;;;;;;;10487057;28;20204;-73
2022/06/17 07:44:57;;;;;;;3.90;3.47;;;;;;;;;;10475750;28;20218;-73
2022/06/17 07:49:58;;;;;;;3.10;2.83;;;;;;;;;;10466485;28;20294;-75
2022/06/17 07:54:59;;;;;;;3.67;3.33;;;;;;;;;;10469773;28;20201;-74
2022/06/17 08:00:01;;;;;;;4.43;3.08;;;;;;;;;;10475998;28;20184;-73
2022/06/17 08:05:13;;;;;;;3.78;2.65;;;;;;;;;;10477063;28;20260;-74
2022/06/17 08:10:19;;;;;;;9.05;2.47;;;;;;;;;;10485778;28;20225;-73
2022/06/17 08:15:20;;;;;;;4.30;2.15;;;;;;;;;;10481042;28;20217;-73
2022/06/17 08:20:23;;;;;;;3.00;2.85;;;;;;;;;;10479907;28;20189;-72
2022/06/17 08:25:24;;;;;;;3.30;2.50;;;;;;;;;;10487892;28;20654;-74
2022/06/17 08:30:26;;;;;;;1.65;1.58;;;;;;;;;;10481814;28;20206;-72
2022/06/17 08:35:32;;;;;;;3.35;2.38;;;;;;;;;;10484167;28;20289;-72
2022/06/17 08:40:56;;;;;;;3.75;2.65;;;;;;;;;;10482703;28;20186;-72
2022/06/17 08:46:04;;;;;;;4.43;3.20;;;;;;;;;;10473263;28;20217;-71
2022/06/17 08:51:08;;;;;;;2.72;1.58;;;;;;;;;;10478568;28;20707;-72
2022/06/17 08:56:13;;;;;;;3.00;2.88;;;;;;;;;;10500606;28;20210;-71
2022/06/17 09:01:33;;;;;;;2.60;2.50;;;;;;;;;;10484001;28;20812;-72
2022/06/17 09:06:34;;;;;;;3.25;2.97;;;;;;;;;;10478943;28;20225;-72
2022/06/17 09:11:35;;;;;;;3.35;2.13;;;;;;;;;;10485556;28;21682;-73
2022/06/17 09:16:45;;;;;;;2.05;1.85;;;;;;;;;;10491431;28;20209;-72
2022/06/17 09:21:51;;;;;;;1.60;1.58;;;;;;;;;;10492223;28;20313;-72
2022/06/17 09:27:03;;;;;;;1.92;1.90;;;;;;;;;;10494852;28;20799;-71
2022/06/17 09:32:10;;;;;;;3.83;1.90;;;;;;;;;;10490566;28;20214;-72
2022/06/17 09:37:16;;;;;;;1.85;1.75;;;;;;;;;;10494740;28;20213;-72
2022/06/17 09:42:24;;;;;;;1.90;1.83;;;;;;;;;;10486817;28;20326;-72
2022/06/17 09:47:31;;;;;;;1.15;1.15;;;;;;;;;;10460987;28;20226;-72
2022/06/17 09:52:34;;;;;;;2.85;1.30;;;;;;;;;;10480817;28;20747;-73
2022/06/17 09:57:55;;;;;;;1.20;0.70;;;;;;;;;;10489919;28;20214;-75
2022/06/17 10:03:02;;;;;;;1.73;1.25;;;;;;;;;;10485842;28;20233;-73
2022/06/17 10:08:22;;;;;;;1.02;1.00;;;;;;;;;;10485261;28;20312;-73
2022/06/17 10:13:34;;;;;;;1.88;1.77;;;;;;;;;;10490884;28;20198;-73
2022/06/17 10:18:43;;;;;;;1.02;0.98;;;;;;;;;;10495633;28;20213;-73
2022/06/17 10:23:53;;;;;;;1.00;1.00;;;;;;;;;;10493739;28;20198;-73
2022/06/17 10:29:05;;;;;;;1.65;1.27;;;;;;;;;;10493168;28;20210;-73
2022/06/17 10:34:12;;;;;;;3.60;1.00;;;;;;;;;;10478101;28;20296;-74
2022/06/17 10:39:15;;;;;;;0.90;0.90;;;;;;;;;;10449673;28;20200;-73
2022/06/17 10:44:18;;;;;;;1.42;1.00;;;;;;;;;;10488458;28;20248;-74
2022/06/17 10:49:26;;;;;;;1.67;1.00;;;;;;;;;;10483322;28;20202;-74
2022/06/17 10:54:36;;;;;;;0.77;0.77;;;;;;;;;;10490934;28;20590;-74
2022/06/17 10:59:41;;;;;;;0.80;0.80;;;;;;;;;;10450875;28;20197;-74
2022/06/17 11:04:48;;;;;;;2.47;0.77;;;;;;;;;;10474694;28;20217;-74
2022/06/17 11:09:51;;;;;;;0.70;0.70;;;;;;;;;;10479853;28;20296;-74
2022/06/17 11:15:03;;;;;;;1.92;0.68;;;;;;;;;;10472693;28;20194;-74
2022/06/17 11:20:06;;;;;;;1.80;0.80;;;;;;;;;;10487102;28;20196;-74
2022/06/17 11:25:20;;;;;;;2.08;0.93;;;;;;;;;;10479946;28;20271;-73
2022/06/17 11:30:23;;;;;;;0.82;0.70;;;;;;;;;;10482367;28;20188;-74
2022/06/17 11:35:29;;;;;;;2.63;0.80;;;;;;;;;;10482777;28;20209;-75
2022/06/17 11:40:33;;;;;;;1.38;0.70;;;;;;;;;;10476817;28;21034;-75
2022/06/17 11:45:36;;;;;;;0.50;0.50;;;;;;;;;;10485407;28;20221;-76
2022/06/17 11:50:42;;;;;;;2.47;0.80;;;;;;;;;;10492559;28;20720;-75
2022/06/17 11:55:45;;;;;;;1.30;0.65;;;;;;;;;;10483309;28;20214;-75
2022/06/17 12:00:51;;;;;;;1.25;0.60;;;;;;;;;;10495748;28;20225;-74
2022/06/17 12:05:59;;;;;;;1.38;0.57;;;;;;;;;;10492042;28;20221;-75
2022/06/17 12:11:03;;;;;;;0.55;0.50;;;;;;;;;;10481855;28;21141;-74
2022/06/17 12:16:08;;;;;;;0.68;0.55;;;;;;;;;;10494594;28;20224;-74
2022/06/17 12:21:29;;;;;;;1.25;0.50;;;;;;;;;;10472441;28;20307;-75
2022/06/17 12:26:34;;;;;;;1.75;0.40;;;;;;;;;;10492396;28;20851;-75
2022/06/17 12:31:55;;;;;;;1.90;0.47;;;;;;;;;;10480243;28;20217;-76
2022/06/17 12:37:02;;;;;;;0.45;0.45;;;;;;;;;;10490903;28;20213;-75
2022/06/17 12:42:29;;;;;;;0.65;0.50;;;;;;;;;;10478339;28;20274;-75
2022/06/17 12:48:03;;;;;;;1.10;0.40;;;;;;;;;;10478544;28;25321;-75
2022/06/17 12:53:29;;;;;;;0.45;0.45;;;;;;;;;;10442239;28;20189;-74
2022/06/17 12:58:53;;;;;;;0.43;0.43;;;;;;;;;;10480352;28;20211;-76
2022/06/17 13:04:13;;;;;;;2.85;0.68;;;;;;;;;;10465221;28;20229;-75
2022/06/17 13:09:38;;;;;;;0.50;0.50;;;;;;;;;;10484733;28;20229;-75
2022/06/17 13:14:54;;;;;;;1.58;0.60;;;;;;;;;;10486110;28;20190;-75
2022/06/17 13:20:09;;;;;;;0.57;0.50;;;;;;;;;;10486662;28;20197;-75
2022/06/17 13:25:25;;;;;;;1.23;0.45;;;;;;;;;;10490543;28;20222;-77
2022/06/17 13:30:30;;;;;;;0.82;0.47;;;;;;;;;;10488273;28;20185;-75
2022/06/17 13:35:37;;;;;;;1.42;0.50;;;;;;;;;;10479769;28;20209;-75
2022/06/17 13:40:41;;;;;;;1.27;0.40;;;;;;;;;;10472754;28;20242;-74
2022/06/17 13:45:49;;;;;;;0.70;0.50;;;;;;;;;;10479335;28;20572;-75
2022/06/17 13:50:59;;;;;;;1.38;0.70;;;;;;;;;;10490564;28;20224;-76
2022/06/17 13:56:14;;;;;;;0.95;0.60;;;;;;;;;;10487000;28;20213;-74
2022/06/17 14:01:25;;;;;;;1.23;0.50;;;;;;;;;;10471517;28;20229;-75
2022/06/17 14:06:27;;;;;;;1.48;0.60;;;;;;;;;;10481222;28;20225;-75
2022/06/17 14:11:38;;;;;;;0.85;0.60;;;;;;;;;;10483062;28;20730;-74
2022/06/17 14:16:39;;;;;;;0.65;0.65;;;;;;;;;;10479796;28;20252;-74
2022/06/17 14:21:48;;;;;;;0.63;0.60;;;;;;;;;;10486267;28;20262;-73
2022/06/17 14:26:51;;;;;;;1.85;0.50;;;;;;;;;;10481078;28;20222;-73
2022/06/17 14:31:54;;;;;;;0.57;0.57;;;;;;;;;;10467642;28;20236;-74
2022/06/17 14:36:57;;;;;;;1.13;0.50;;;;;;;;;;10482069;28;20210;-73
2022/06/17 14:42:05;;;;;;;4.15;0.90;;;;;;;;;;10477626;28;20276;-74
2022/06/17 14:47:23;;;;;;;1.02;0.50;;;;;;;;;;10474768;28;20231;-73
2022/06/17 14:52:24;;;;;;;1.10;0.50;;;;;;;;;;10460000;28;20235;-73
2022/06/17 14:57:26;;;;;;;3.67;0.50;;;;;;;;;;10471729;28;20216;-73
2022/06/17 15:02:39;;;;;;;0.93;0.60;;;;;;;;;;10471944;28;20210;-74
2022/06/17 15:07:42;;;;;;;0.40;0.40;;;;;;;;;;10478935;28;20218;-74
2022/06/17 15:12:53;;;;;;;0.40;0.40;;;;;;;;;;10477983;28;20185;-73
2022/06/17 15:17:56;;;;;;;1.38;0.50;;;;;;;;;;10486070;28;20292;-74
2022/06/17 15:23:15;;;;;;;0.65;0.45;;;;;;;;;;10486651;28;20188;-73
2022/06/17 15:28:26;;;;;;;1.10;0.40;;;;;;;;;;10471076;28;20217;-73
2022/06/17 15:33:28;;;;;;;2.00;0.30;;;;;;;;;;10490071;28;20206;-73
2022/06/17 15:38:38;;;;;;;1.60;0.55;;;;;;;;;;10477993;28;20789;-73
2022/06/17 15:43:54;;;;;;;0.50;0.50;;;;;;;;;;10483886;28;20334;-73
2022/06/17 15:48:57;;;;;;;2.45;0.60;;;;;;;;;;10479720;28;20210;-73
2022/06/17 15:53:59;;;;;;;2.70;0.60;;;;;;;;;;10479010;28;20194;-73
2022/06/17 15:59:05;;;;;;;0.52;0.50;;;;;;;;;;10446645;28;20236;-74
2022/06/17 16:04:16;;;;;;;1.33;0.40;;;;;;;;;;10485423;28;20660;-74
2022/06/17 16:09:26;;;;;;;5.05;0.95;;;;;;;;;;10473360;28;20212;-74
2022/06/17 16:14:29;;;;;;;1.73;0.75;;;;;;;;;;10484474;28;20218;-73
2022/06/17 16:19:30;;;;;;;2.47;0.63;;;;;;;;;;10481144;28;20206;-72
2022/06/17 16:24:36;;;;;;;2.40;0.60;;;;;;;;;;10478818;28;21169;-73
2022/06/17 16:29:42;;;;;;;3.10;0.60;;;;;;;;;;10483040;28;20305;-74
2022/06/17 16:34:44;;;;;;;2.22;2.13;;;;;;;;;;10491632;28;20214;-73
2022/06/17 16:39:45;;;;;;;22.40;17.52;;;;;;;;;;10486024;28;22295;-73
2022/06/17 16:44:46;;;;;;;16.95;15.30;;;;;;;;;;10484007;28;20407;-72
2022/06/17 16:49:48;;;;;;;1.13;1.13;;;;;;;;;;10484772;28;20185;-73
2022/06/17 16:54:49;;;;;;;2.95;0.60;;;;;;;;;;10484245;28;20828;-73
2022/06/17 16:59:51;;;;;;;0.50;0.50;;;;;;;;;;10479027;28;20681;-73
2022/06/17 17:04:53;;;;;;;2.38;0.50;;;;;;;;;;10458442;28;20316;-73
2022/06/17 17:09:56;;;;;;;1.42;0.50;;;;;;;;;;10491449;28;20574;-73
2022/06/17 17:14:57;;;;;;;0.75;0.43;;;;;;;;;;10493375;28;21096;-73
2022/06/17 17:19:58;;;;;;;0.60;0.60;;;;;;;;;;10466181;28;20201;-73
2022/06/17 17:25:07;;;;;;;2.92;0.50;;;;;;;;;;10467439;28;20927;-73
2022/06/17 17:30:08;;;;;;;0.75;0.75;;;;;;;;;;10489984;28;20244;-73
2022/06/17 17:35:10;;;;;;;0.50;0.50;;;;;;;;;;10481521;28;20221;-73
2022/06/17 17:40:12;;;;;;;1.00;0.60;;;;;;;;;;10486877;28;20182;-73
2022/06/17 17:45:24;;;;;;;2.03;0.40;;;;;;;;;;10475438;28;20213;-74
2022/06/17 17:50:26;;;;;;;0.45;0.40;;;;;;;;;;10492682;28;20268;-73
2022/06/17 17:55:27;;;;;;;1.35;0.30;;;;;;;;;;10491069;28;20282;-73
2022/06/17 18:00:30;;;;;;;0.75;0.50;;;;;;;;;;10494377;28;20194;-74
2022/06/17 18:05:32;;;;;;;0.52;0.47;;;;;;;;;;10495811;28;20214;-74
2022/06/17 18:10:38;;;;;;;0.35;0.35;;;;;;;;;;10493258;28;20253;-73
2022/06/17 18:15:39;;;;;;;1.00;0.50;;;;;;;;;;10491661;28;20229;-73
2022/06/17 18:20:40;;;;;;;2.55;0.45;;;;;;;;;;10494413;28;20243;-72
2022/06/17 18:25:42;;;;;;;1.10;0.55;;;;;;;;;;10494758;28;20292;-73
2022/06/17 18:30:43;;;;;;;0.50;0.40;;;;;;;;;;10487550;28;20210;-73
2022/06/17 18:35:52;;;;;;;0.40;0.40;;;;;;;;;;10493016;28;20217;-73
2022/06/17 18:40:54;;;;;;;0.55;0.40;;;;;;;;;;10494180;28;20666;-73
2022/06/17 18:45:55;;;;;;;0.30;0.30;;;;;;;;;;10495165;28;20221;-74
2022/06/17 18:50:57;;;;;;;2.55;0.50;;;;;;;;;;10488489;28;20182;-73
2022/06/17 18:55:58;;;;;;;0.63;0.47;;;;;;;;;;10491321;28;20266;-73
2022/06/17 19:01:02;;;;;;;0.65;0.65;;;;;;;;;;10488082;28;20286;-72
2022/06/17 19:06:03;;;;;;;0.77;0.63;;;;;;;;;;10483128;28;20274;-72
2022/06/17 19:21:49;;;;;;;2.15;0.80;;;;;;;;;;10492621;28;20272;-72
2022/06/17 19:26:50;;;;;;;0.80;0.73;;;;;;;;;;10491277;28;20221;-72
2022/06/17 19:31:52;;;;;;;2.72;0.68;;;;;;;;;;10488386;28;20793;-73
2022/06/17 19:36:55;;;;;;;1.30;1.30;;;;;;;;;;10470079;28;20341;-72
2022/06/17 19:41:56;;;;;;;2.15;2.05;;;;;;;;;;10488287;28;20229;-72
2022/06/17 19:46:58;;;;;;;1.90;0.90;;;;;;;;;;10483558;28;20646;-73
2022/06/17 19:52:01;;;;;;;1.48;1.10;;;;;;;;;;10494169;28;20248;-72
2022/06/17 19:57:02;;;;;;;3.42;1.35;;;;;;;;;;10490011;28;20209;-72
2022/06/17 20:02:13;;;;;;;3.15;2.85;;;;;;;;;;10484719;28;20218;-73
2022/06/17 20:07:15;;;;;;;1.85;1.73;;;;;;;;;;10497526;28;20228;-72
2022/06/17 20:12:17;;;;;;;3.22;1.42;;;;;;;;;;10471900;28;20190;-72
2022/06/17 20:17:18;;;;;;;4.07;1.40;;;;;;;;;;10486298;28;20309;-72
2022/06/17 20:22:19;;;;;;;1.35;0.90;;;;;;;;;;10489929;28;20182;-72
2022/06/17 20:27:23;;;;;;;1.65;1.20;;;;;;;;;;10496616;28;20586;-72
2022/06/17 20:32:25;;;;;;;1.85;1.05;;;;;;;;;;10492981;28;20685;-72
2022/06/17 20:37:28;;;;;;;1.30;1.20;;;;;;;;;;10491177;28;20241;-72
2022/06/17 20:42:33;;;;;;;1.13;0.70;;;;;;;;;;10490293;28;20266;-72
2022/06/17 20:52:55;;;;;;;2.38;0.82;;;;;;;;;;10489223;28;20201;-73
2022/06/17 20:58:08;;;;;;;1.60;1.10;;;;;;;;;;10489360;28;20563;-72
2022/06/17 21:03:10;;;;;;;1.35;1.25;;;;;;;;;;10480961;28;20205;-72
2022/06/17 21:08:14;;;;;;;2.10;1.52;;;;;;;;;;10483403;28;20227;-72
2022/06/17 21:13:16;;;;;;;1.63;1.35;;;;;;;;;;10483671;28;20586;-72
2022/06/17 21:18:17;;;;;;;3.78;1.50;;;;;;;;;;10486450;28;20206;-71
2022/06/17 21:23:21;;;;;;;4.45;2.10;;;;;;;;;;10490673;28;20186;-73
2022/06/17 21:28:27;;;;;;;2.35;2.17;;;;;;;;;;10490963;28;21827;-72
2022/06/17 21:33:28;;;;;;;2.15;1.92;;;;;;;;;;10486956;28;20221;-72
2022/06/17 21:38:31;;;;;;;2.17;2.00;;;;;;;;;;10476215;28;20218;-71
2022/06/17 21:43:34;;;;;;;2.63;2.40;;;;;;;;;;10497345;28;20189;-72
2022/06/17 21:48:35;;;;;;;2.50;2.30;;;;;;;;;;10498224;28;20456;-72
2022/06/17 21:53:37;;;;;;;2.10;2.10;;;;;;;;;;10491006;28;20200;-73
2022/06/17 21:58:40;;;;;;;3.65;2.03;;;;;;;;;;10472699;28;20222;-72
2022/06/17 22:03:41;;;;;;;2.95;2.10;;;;;;;;;;10474960;28;20342;-72
2022/06/17 22:08:44;;;;;;;2.40;2.33;;;;;;;;;;10491808;28;20213;-72
2022/06/17 22:13:45;;;;;;;2.58;2.35;;;;;;;;;;10490128;28;20196;-73
2022/06/17 22:18:46;;;;;;;3.15;2.85;;;;;;;;;;10453401;28;20236;-72
2022/06/17 22:23:47;;;;;;;3.50;2.50;;;;;;;;;;10490299;28;20824;-72
2022/06/17 22:28:50;;;;;;;7.50;2.97;;;;;;;;;;10487818;28;20229;-72
2022/06/17 22:33:51;;;;;;;4.60;2.22;;;;;;;;;;10492012;28;20234;-72
2022/06/17 22:38:52;;;;;;;2.28;2.17;;;;;;;;;;10484786;28;20296;-72
2022/06/17 22:43:53;;;;;;;4.93;1.85;;;;;;;;;;10489132;28;20243;-72
2022/06/17 22:48:54;;;;;;;1.67;1.52;;;;;;;;;;10491390;28;20213;-72
2022/06/17 22:53:55;;;;;;;3.30;1.40;;;;;;;;;;10483412;28;20185;-72
2022/06/17 22:58:56;;;;;;;1.33;1.33;;;;;;;;;;10484651;28;20213;-72
2022/06/17 23:09:18;;;;;;;2.22;1.52;;;;;;;;;;10492481;28;20213;-72
2022/06/17 23:14:19;;;;;;;1.40;1.40;;;;;;;;;;10466130;28;20181;-72
2022/06/17 23:24:43;;;;;;;3.92;1.40;;;;;;;;;;10488675;28;20216;-72
2022/06/17 23:29:45;;;;;;;1.40;1.30;;;;;;;;;;10488555;28;20209;-72
2022/06/17 23:34:49;;;;;;;2.58;1.25;;;;;;;;;;10486835;28;20271;-72
2022/06/17 23:39:50;;;;;;;1.65;1.50;;;;;;;;;;10494157;28;20259;-72
2022/06/17 23:44:51;;;;;;;4.95;1.85;;;;;;;;;;10501547;28;20221;-71
2022/06/17 23:49:52;;;;;;;1.88;1.77;;;;;;;;;;10493499;28;20284;-72
2022/06/17 23:54:54;;;;;;;3.35;1.90;;;;;;;;;;10501950;28;20221;-72
2022/06/17 23:59:55;;;;;;;2.65;2.53;;;;;;;;;;10490812;28;20197;-72
